Time;durP1;ratioP1;P1;durP2;ratioP2;P2;SDS_P1;SDS_P2;PMS_P1;PMS_P2;Temp;Humidity;BMP_temperature;BMP_pressure;BME280_temperature;BME280_humidity;BME280_pressure;Samples;Min_cycle;Max_cycle;Signal;HPM_P1;HPM_P2
2023/04/07 00:03:12;;;;;;;;;;;;;;;7.81;85.79199;101544.3;;;;-73
2023/04/07 00:08:12;;;;;;;;;;;;;;;7.81;86.31836;101548.3;;;;-73
2023/04/07 00:13:12;;;;;;;;;;;;;;;7.82;86.68066;101545.9;;;;-73
2023/04/07 00:18:12;;;;;;;;;;;;;;;7.81;86.99902;101542.9;;;;-73
2023/04/07 00:23:12;;;;;;;;;;;;;;;7.81;86.64648;101545.3;;;;-73
2023/04/07 00:24:08;;;;;;;9;2.6;;;;;;;;;;;;;-73
2023/04/07 00:28:12;;;;;;;;;;;;;;;7.8;86.91895;101549.8;;;;-72
2023/04/07 00:33:13;;;;;;;;;;;;;;;7.79;86.875;101552.7;;;;-74
2023/04/07 00:38:12;;;;;;;;;;;;;;;7.79;86.7207;101548.6;;;;-73
2023/04/07 00:43:20;;;;;;;;;;;;;;;7.78;87.07031;101549.5;;;;-73
2023/04/07 00:48:15;;;;;;;;;;;;;;;7.77;87.28613;101546.2;;;;-73
2023/04/07 00:53:14;;;;;;;;;;;;;;;7.78;86.83789;101551.7;;;;-72
2023/04/07 00:54:13;;;;;;;6.6;2;;;;;;;;;;;;;-73
2023/04/07 00:58:12;;;;;;;;;;;;;;;7.77;87.14551;101550.9;;;;-73
2023/04/07 01:03:13;;;;;;;;;;;;;;;7.78;87.59668;101551.6;;;;-73
2023/04/07 01:08:16;;;;;;;;;;;;;;;7.78;87.70508;101553.4;;;;-73
2023/04/07 01:13:19;;;;;;;;;;;;;;;7.8;88.38867;101554.8;;;;-73
2023/04/07 01:18:16;;;;;;;;;;;;;;;7.81;88.40332;101554.4;;;;-72
2023/04/07 01:23:13;;;;;;;;;;;;;;;7.83;88.94434;101560;;;;-72
2023/04/07 01:24:18;;;;;;;7.5;2;;;;;;;;;;;;;-74
2023/04/07 01:28:18;;;;;;;;;;;;;;;7.82;89.22559;101557.4;;;;-73
2023/04/07 01:33:14;;;;;;;;;;;;;;;7.81;88.77637;101556.7;;;;-72
2023/04/07 01:38:14;;;;;;;;;;;;;;;7.82;89.18359;101558.7;;;;-73
2023/04/07 01:43:12;;;;;;;;;;;;;;;7.81;89.1709;101561.3;;;;-73
2023/04/07 01:48:15;;;;;;;;;;;;;;;7.81;88.96289;101561.1;;;;-72
2023/04/07 01:53:12;;;;;;;;;;;;;;;7.82;89.77539;101565.8;;;;-72
2023/04/07 01:54:11;;;;;;;7.2;2;;;;;;;;;;;;;-73
2023/04/07 01:58:12;;;;;;;;;;;;;;;7.81;89.31348;101570.4;;;;-72
2023/04/07 02:03:19;;;;;;;;;;;;;;;7.81;88.8418;101567.2;;;;-73
2023/04/07 02:08:13;;;;;;;;;;;;;;;7.79;88.13574;101567.1;;;;-73
2023/04/07 02:13:16;;;;;;;;;;;;;;;7.8;87.87305;101564.8;;;;-73
2023/04/07 02:18:13;;;;;;;;;;;;;;;7.8;87.9502;101562.1;;;;-73
2023/04/07 02:23:12;;;;;;;;;;;;;;;7.77;87.92188;101562.7;;;;-72
2023/04/07 02:24:17;;;;;;;5.1;1.5;;;;;;;;;;;;;-73
2023/04/07 02:28:15;;;;;;;;;;;;;;;7.77;87.94434;101559.8;;;;-72
2023/04/07 02:33:12;;;;;;;;;;;;;;;7.79;89.57227;101563.1;;;;-73
2023/04/07 02:38:12;;;;;;;;;;;;;;;7.77;89.74219;101569.5;;;;-74
2023/04/07 02:43:18;;;;;;;;;;;;;;;7.78;89.4707;101567.8;;;;-72
2023/04/07 02:48:17;;;;;;;;;;;;;;;7.77;88.98828;101569;;;;-72
2023/04/07 02:53:13;;;;;;;;;;;;;;;7.77;89.66602;101572.5;;;;-72
2023/04/07 02:54:13;;;;;;;7.3;2.9;;;;;;;;;;;;;-73
2023/04/07 02:58:11;;;;;;;;;;;;;;;7.75;89.61816;101573.6;;;;-73
2023/04/07 03:03:12;;;;;;;;;;;;;;;7.74;89.06836;101575.9;;;;-73
2023/04/07 03:08:12;;;;;;;;;;;;;;;7.74;89.49512;101578.5;;;;-72
2023/04/07 03:13:12;;;;;;;;;;;;;;;7.73;88.99902;101582.7;;;;-72
2023/04/07 03:18:12;;;;;;;;;;;;;;;7.71;88.51465;101581.8;;;;-72
2023/04/07 03:23:12;;;;;;;;;;;;;;;7.7;88.78516;101580.1;;;;-72
2023/04/07 03:24:14;;;;;;;10.6;2.5;;;;;;;;;;;;;-73
2023/04/07 03:28:12;;;;;;;;;;;;;;;7.69;88.38965;101580.6;;;;-73
2023/04/07 03:33:14;;;;;;;;;;;;;;;7.68;88.91211;101573.8;;;;-72
2023/04/07 03:38:12;;;;;;;;;;;;;;;7.66;87.95508;101578.9;;;;-74
2023/04/07 03:43:14;;;;;;;;;;;;;;;7.67;87.54004;101581.3;;;;-73
2023/04/07 03:48:13;;;;;;;;;;;;;;;7.65;87.77539;101584.3;;;;-74
2023/04/07 03:53:13;;;;;;;;;;;;;;;7.64;87.45801;101580;;;;-73
2023/04/07 03:54:17;;;;;;;7.7;2;;;;;;;;;;;;;-72
2023/04/07 03:58:16;;;;;;;;;;;;;;;7.63;87.31152;101586.4;;;;-73
2023/04/07 04:03:13;;;;;;;;;;;;;;;7.62;87.50781;101587.1;;;;-73
2023/04/07 04:08:14;;;;;;;;;;;;;;;7.6;87.54883;101589.6;;;;-73
2023/04/07 04:13:11;;;;;;;;;;;;;;;7.59;87.62402;101594.6;;;;-72
2023/04/07 04:18:11;;;;;;;;;;;;;;;7.58;87.70996;101594.7;;;;-72
2023/04/07 04:23:12;;;;;;;;;;;;;;;7.57;87.95898;101598.2;;;;-72
2023/04/07 04:24:17;;;;;;;7.2;1.8;;;;;;;;;;;;;-73
2023/04/07 04:28:12;;;;;;;;;;;;;;;7.56;88.34082;101598.7;;;;-72
2023/04/07 04:33:21;;;;;;;;;;;;;;;7.57;88.0791;101602.6;;;;-73
2023/04/07 04:38:14;;;;;;;;;;;;;;;7.56;87.77246;101605.1;;;;-73
2023/04/07 04:43:12;;;;;;;;;;;;;;;7.55;87.90039;101601;;;;-73
2023/04/07 04:48:12;;;;;;;;;;;;;;;7.54;88.0293;101606.9;;;;-72
2023/04/07 04:53:11;;;;;;;;;;;;;;;7.54;87.56934;101608.7;;;;-72
2023/04/07 04:54:17;;;;;;;6.1;1.7;;;;;;;;;;;;;-72
2023/04/07 04:58:12;;;;;;;;;;;;;;;7.54;87.28418;101614.6;;;;-74
2023/04/07 05:03:12;;;;;;;;;;;;;;;7.54;87.4375;101623.5;;;;-73
2023/04/07 05:08:14;;;;;;;;;;;;;;;7.52;87.125;101621.8;;;;-73
2023/04/07 05:13:13;;;;;;;;;;;;;;;7.52;86.92773;101622.8;;;;-74
2023/04/07 05:18:12;;;;;;;;;;;;;;;7.54;86.93359;101633.3;;;;-73
2023/04/07 05:23:12;;;;;;;;;;;;;;;7.51;86.66504;101632.8;;;;-73
2023/04/07 05:24:19;;;;;;;5.9;1.6;;;;;;;;;;;;;-73
2023/04/07 05:28:15;;;;;;;;;;;;;;;7.51;86.71973;101635.6;;;;-73
2023/04/07 05:33:12;;;;;;;;;;;;;;;7.51;86.80762;101637.6;;;;-73
2023/04/07 05:38:12;;;;;;;;;;;;;;;7.52;87.70605;101640.4;;;;-73
2023/04/07 05:43:12;;;;;;;;;;;;;;;7.5;87.26563;101643.4;;;;-72
2023/04/07 05:48:12;;;;;;;;;;;;;;;7.51;86.9502;101649.2;;;;-72
2023/04/07 05:53:11;;;;;;;;;;;;;;;7.54;86.80176;101648.4;;;;-73
2023/04/07 05:54:20;;;;;;;9;1.6;;;;;;;;;;;;;-72
2023/04/07 05:58:12;;;;;;;;;;;;;;;7.54;86.75781;101655.3;;;;-72
2023/04/07 06:03:11;;;;;;;;;;;;;;;7.55;86.68262;101655.2;;;;-73
2023/04/07 06:08:12;;;;;;;;;;;;;;;7.56;87.11426;101663.3;;;;-72
2023/04/07 06:13:12;;;;;;;;;;;;;;;7.56;87.2793;101669.9;;;;-72
2023/04/07 06:18:12;;;;;;;;;;;;;;;7.58;87.45801;101679;;;;-74
2023/04/07 06:23:14;;;;;;;;;;;;;;;7.59;88.43555;101681.4;;;;-72
2023/04/07 06:24:24;;;;;;;6.6;1.5;;;;;;;;;;;;;-72
2023/04/07 06:28:11;;;;;;;;;;;;;;;7.61;87.59473;101689.4;;;;-73
2023/04/07 06:33:11;;;;;;;;;;;;;;;7.64;87.89648;101695.5;;;;-72
2023/04/07 06:38:12;;;;;;;;;;;;;;;7.65;88.29492;101695.6;;;;-72
2023/04/07 06:43:12;;;;;;;;;;;;;;;7.67;88.67188;101693.8;;;;-73
2023/04/07 06:48:12;;;;;;;;;;;;;;;7.69;88.26953;101692.6;;;;-73
2023/04/07 06:53:12;;;;;;;;;;;;;;;7.71;88.59082;101698.6;;;;-73
2023/04/07 06:54:22;;;;;;;5.3;1.6;;;;;;;;;;;;;-73
2023/04/07 06:58:11;;;;;;;;;;;;;;;7.72;88.4834;101710.4;;;;-72
2023/04/07 07:03:11;;;;;;;;;;;;;;;7.76;88.78809;101716.5;;;;-72
2023/04/07 07:08:11;;;;;;;;;;;;;;;7.79;89.0791;101720.9;;;;-73
2023/04/07 07:13:12;;;;;;;;;;;;;;;7.83;89.11816;101723.7;;;;-73
2023/04/07 07:18:13;;;;;;;;;;;;;;;7.85;89.0791;101726.7;;;;-72
2023/04/07 07:23:12;;;;;;;;;;;;;;;7.88;89.04102;101723.3;;;;-73
2023/04/07 07:24:23;;;;;;;3.7;1.3;;;;;;;;;;;;;-72
2023/04/07 07:28:11;;;;;;;;;;;;;;;7.93;88.97754;101729.7;;;;-73
2023/04/07 07:33:12;;;;;;;;;;;;;;;7.98;89.1709;101732.6;;;;-73
2023/04/07 07:38:11;;;;;;;;;;;;;;;8.03;89.05273;101735.7;;;;-73
2023/04/07 07:43:12;;;;;;;;;;;;;;;8.08;88.71094;101740.2;;;;-73
2023/04/07 07:48:12;;;;;;;;;;;;;;;8.14;88.88672;101744.4;;;;-73
2023/04/07 07:53:11;;;;;;;;;;;;;;;8.19;88.89746;101754.5;;;;-73
2023/04/07 07:54:24;;;;;;;4.5;1.3;;;;;;;;;;;;;-72
2023/04/07 07:58:12;;;;;;;;;;;;;;;8.24;88.89648;101756;;;;-72
2023/04/07 08:03:11;;;;;;;;;;;;;;;8.28;88.70605;101759.2;;;;-72
2023/04/07 08:08:11;;;;;;;;;;;;;;;8.31;88.3291;101765.2;;;;-72
2023/04/07 08:13:11;;;;;;;;;;;;;;;8.35;88.48828;101775.6;;;;-72
2023/04/07 08:18:14;;;;;;;;;;;;;;;8.38;88.29785;101775.6;;;;-72
2023/04/07 08:23:12;;;;;;;;;;;;;;;8.42;88.18457;101775.7;;;;-72
2023/04/07 08:24:25;;;;;;;6.7;1.6;;;;;;;;;;;;;-71
2023/04/07 08:28:12;;;;;;;;;;;;;;;8.44;88.22363;101782.1;;;;-73
2023/04/07 08:33:12;;;;;;;;;;;;;;;8.46;88.29297;101783.4;;;;-71
2023/04/07 08:38:12;;;;;;;;;;;;;;;8.49;88.02539;101786.4;;;;-73
2023/04/07 08:43:12;;;;;;;;;;;;;;;8.55;87.5752;101793;;;;-72
2023/04/07 08:48:17;;;;;;;;;;;;;;;8.59;87.59473;101796.2;;;;-74
2023/04/07 08:53:13;;;;;;;;;;;;;;;8.62;87.49023;101801.8;;;;-71
2023/04/07 08:54:27;;;;;;;4.2;1.2;;;;;;;;;;;;;-72
2023/04/07 08:58:13;;;;;;;;;;;;;;;8.66;87.4873;101806.2;;;;-71
2023/04/07 09:03:12;;;;;;;;;;;;;;;8.69;87.53613;101808.1;;;;-72
2023/04/07 09:08:11;;;;;;;;;;;;;;;8.73;87.99805;101807.8;;;;-72
2023/04/07 09:13:13;;;;;;;;;;;;;;;8.76;87.82617;101813;;;;-74
2023/04/07 09:18:13;;;;;;;;;;;;;;;8.81;87.57324;101816.8;;;;-73
2023/04/07 09:23:21;;;;;;;;;;;;;;;8.87;87.66113;101820.1;;;;-73
2023/04/07 09:24:30;;;;;;;6.5;1.3;;;;;;;;;;;;;-72
2023/04/07 09:28:14;;;;;;;;;;;;;;;8.9;87.3916;101829;;;;-71
2023/04/07 09:33:17;;;;;;;;;;;;;;;8.93;87.77246;101835.6;;;;-71
2023/04/07 09:38:12;;;;;;;;;;;;;;;8.95;87.65723;101840.2;;;;-72
2023/04/07 09:43:17;;;;;;;;;;;;;;;8.95;87.67871;101839.2;;;;-72
2023/04/07 09:48:21;;;;;;;;;;;;;;;8.99;87.50879;101842.1;;;;-72
2023/04/07 09:53:11;;;;;;;;;;;;;;;9.01;88.15234;101840.3;;;;-73
2023/04/07 09:54:40;;;;;;;6.5;1.9;;;;;;;;;;;;;-73
2023/04/07 09:58:12;;;;;;;;;;;;;;;9.03;88.0127;101844.7;;;;-73
2023/04/07 10:03:12;;;;;;;;;;;;;;;9.11;88.35938;101844.4;;;;-72
2023/04/07 10:08:13;;;;;;;;;;;;;;;9.16;88.77539;101843.4;;;;-73
2023/04/07 10:13:11;;;;;;;;;;;;;;;9.24;88.87988;101848.1;;;;-72
2023/04/07 10:18:12;;;;;;;;;;;;;;;9.31;88.49902;101850;;;;-73
2023/04/07 10:23:16;;;;;;;;;;;;;;;9.4;88.42969;101847.1;;;;-73
2023/04/07 10:24:36;;;;;;;5.5;1.9;;;;;;;;;;;;;-72
2023/04/07 10:28:14;;;;;;;;;;;;;;;9.45;88.44043;101847.3;;;;-72
2023/04/07 10:33:12;;;;;;;;;;;;;;;9.5;88.51367;101854.1;;;;-73
2023/04/07 10:38:21;;;;;;;;;;;;;;;9.53;88.65332;101861.5;;;;-70
2023/04/07 10:43:13;;;;;;;;;;;;;;;9.56;88.65918;101868.6;;;;-73
2023/04/07 10:48:18;;;;;;;;;;;;;;;9.64;87.99121;101871.6;;;;-72
2023/04/07 10:53:12;;;;;;;;;;;;;;;9.69;88.24414;101872.4;;;;-73
2023/04/07 10:54:30;;;;;;;7;1.8;;;;;;;;;;;;;-73
2023/04/07 10:58:23;;;;;;;;;;;;;;;9.75;88.24609;101878.7;;;;-73
2023/04/07 11:03:16;;;;;;;;;;;;;;;9.83;87.96484;101874.9;;;;-72
2023/04/07 11:08:12;;;;;;;;;;;;;;;9.9;87.57129;101875;;;;-73
2023/04/07 11:13:12;;;;;;;;;;;;;;;9.94;87.44727;101880;;;;-72
2023/04/07 11:18:28;;;;;;;;;;;;;;;9.93;87.41211;101885.6;;;;-73
2023/04/07 11:23:12;;;;;;;;;;;;;;;9.86;87.07715;101887.3;;;;-72
2023/04/07 11:24:42;;;;;;;6.3;1.9;;;;;;;;;;;;;-73
2023/04/07 11:28:12;;;;;;;;;;;;;;;9.81;87.06641;101890.2;;;;-71
2023/04/07 11:33:12;;;;;;;;;;;;;;;9.8;87.84766;101891.8;;;;-72
2023/04/07 11:38:12;;;;;;;;;;;;;;;9.78;87.46875;101896.3;;;;-71
2023/04/07 11:43:23;;;;;;;;;;;;;;;9.81;87.46387;101900.7;;;;-72
2023/04/07 11:48:22;;;;;;;;;;;;;;;9.83;87.51074;101898.8;;;;-73
2023/04/07 11:53:12;;;;;;;;;;;;;;;9.82;87.88379;101902.8;;;;-72
2023/04/07 11:54:41;;;;;;;10.4;2.4;;;;;;;;;;;;;-74
2023/04/07 11:58:14;;;;;;;;;;;;;;;9.83;87.4248;101908.4;;;;-72
2023/04/07 12:03:19;;;;;;;;;;;;;;;9.91;87.5293;101911.5;;;;-72
2023/04/07 12:08:12;;;;;;;;;;;;;;;9.99;87.6123;101918.9;;;;-73
2023/04/07 12:13:12;;;;;;;;;;;;;;;10.1;87.31445;101915.1;;;;-73
2023/04/07 12:18:12;;;;;;;;;;;;;;;10.22;87.31348;101923.7;;;;-71
2023/04/07 12:23:11;;;;;;;;;;;;;;;10.27;86.37402;101923.5;;;;-73
2023/04/07 12:24:35;;;;;;;10.6;3.4;;;;;;;;;;;;;-73
2023/04/07 12:28:11;;;;;;;;;;;;;;;10.31;86.05176;101930.6;;;;-71
2023/04/07 12:33:15;;;;;;;;;;;;;;;10.36;85.76465;101933.4;;;;-74
2023/04/07 12:38:12;;;;;;;;;;;;;;;10.34;85.46094;101940.6;;;;-73
2023/04/07 12:43:11;;;;;;;;;;;;;;;10.32;85.37988;101937.8;;;;-73
2023/04/07 12:48:15;;;;;;;;;;;;;;;10.29;85.28613;101939.1;;;;-72
2023/04/07 12:53:12;;;;;;;;;;;;;;;10.29;85.62695;101943.1;;;;-73
2023/04/07 12:54:41;;;;;;;9.1;3.1;;;;;;;;;;;;;-71
2023/04/07 12:58:12;;;;;;;;;;;;;;;10.28;85.4502;101942.6;;;;-72
2023/04/07 13:03:12;;;;;;;;;;;;;;;10.24;85.46484;101949.6;;;;-72
2023/04/07 13:08:14;;;;;;;;;;;;;;;10.18;85.35352;101953.9;;;;-73
2023/04/07 13:13:11;;;;;;;;;;;;;;;10.13;85.90723;101960.5;;;;-72
2023/04/07 13:18:12;;;;;;;;;;;;;;;10.08;86.04004;101961.4;;;;-73
2023/04/07 13:23:11;;;;;;;;;;;;;;;10.07;85.99414;101968.7;;;;-74
2023/04/07 13:24:37;;;;;;;8.3;2.9;;;;;;;;;;;;;-73
2023/04/07 13:28:12;;;;;;;;;;;;;;;10.07;85.75098;101969.1;;;;-73
2023/04/07 13:33:14;;;;;;;;;;;;;;;10.08;85.94043;101971.8;;;;-73
2023/04/07 13:38:11;;;;;;;;;;;;;;;10.1;85.86914;101973.3;;;;-72
2023/04/07 13:43:11;;;;;;;;;;;;;;;10.12;85.88379;101969.1;;;;-73
2023/04/07 13:48:12;;;;;;;;;;;;;;;10.19;85.6748;101973;;;;-72
2023/04/07 13:53:11;;;;;;;;;;;;;;;10.24;85.78516;101977.3;;;;-73
2023/04/07 13:54:38;;;;;;;9.9;3.8;;;;;;;;;;;;;-73
2023/04/07 13:58:11;;;;;;;;;;;;;;;10.3;85.58594;101974.2;;;;-73
2023/04/07 14:03:11;;;;;;;;;;;;;;;10.35;85.31934;101976.2;;;;-73
2023/04/07 14:08:11;;;;;;;;;;;;;;;10.38;85.17188;101974.6;;;;-73
2023/04/07 14:13:11;;;;;;;;;;;;;;;10.37;84.9707;101981.5;;;;-68
2023/04/07 14:18:11;;;;;;;;;;;;;;;10.37;84.84961;101975.7;;;;-72
2023/04/07 14:23:11;;;;;;;;;;;;;;;10.37;84.92871;101979.8;;;;-71
2023/04/07 14:24:39;;;;;;;10.7;3.9;;;;;;;;;;;;;-72
2023/04/07 14:28:11;;;;;;;;;;;;;;;10.38;84.70801;101982;;;;-71
2023/04/07 14:33:12;;;;;;;;;;;;;;;10.38;84.68555;101984.4;;;;-73
2023/04/07 14:38:11;;;;;;;;;;;;;;;10.34;84.67871;101985.6;;;;-73
2023/04/07 14:43:13;;;;;;;;;;;;;;;10.3;84.75781;101992.6;;;;-72
2023/04/07 14:48:12;;;;;;;;;;;;;;;10.28;85.00879;101995.8;;;;-73
2023/04/07 14:53:11;;;;;;;;;;;;;;;10.26;84.96094;101996.9;;;;-73
2023/04/07 14:54:40;;;;;;;12.2;4.6;;;;;;;;;;;;;-74
2023/04/07 14:58:12;;;;;;;;;;;;;;;10.26;84.83984;102002.3;;;;-73
2023/04/07 15:03:12;;;;;;;;;;;;;;;10.26;85.08203;101999.8;;;;-73
2023/04/07 15:08:11;;;;;;;;;;;;;;;10.27;85.15918;102009.1;;;;-72
2023/04/07 15:13:11;;;;;;;;;;;;;;;10.24;85.0459;102009.9;;;;-73
2023/04/07 15:18:11;;;;;;;;;;;;;;;10.22;85.16309;102013.8;;;;-73
2023/04/07 15:23:13;;;;;;;;;;;;;;;10.19;85.22461;102022.7;;;;-72
2023/04/07 15:24:42;;;;;;;12.5;4.8;;;;;;;;;;;;;-72
2023/04/07 15:28:13;;;;;;;;;;;;;;;10.16;85.44922;102023.2;;;;-69
2023/04/07 15:33:11;;;;;;;;;;;;;;;10.11;85.50488;102025.4;;;;-72
2023/04/07 15:38:11;;;;;;;;;;;;;;;10.07;85.44043;102023.3;;;;-73
2023/04/07 15:43:13;;;;;;;;;;;;;;;10.03;85.58984;102029.1;;;;-72
2023/04/07 15:48:12;;;;;;;;;;;;;;;10.01;85.63965;102029.1;;;;-72
2023/04/07 15:53:13;;;;;;;;;;;;;;;10.02;85.62109;102031.1;;;;-72
2023/04/07 15:54:44;;;;;;;14.1;7;;;;;;;;;;;;;-72
2023/04/07 15:58:11;;;;;;;;;;;;;;;10.07;85.80664;102032.1;;;;-72
2023/04/07 16:03:12;;;;;;;;;;;;;;;10.11;85.68164;102035;;;;-72
2023/04/07 16:08:11;;;;;;;;;;;;;;;10.16;85.48242;102036.8;;;;-71
2023/04/07 16:13:12;;;;;;;;;;;;;;;10.2;85.44531;102035.5;;;;-72
2023/04/07 16:18:12;;;;;;;;;;;;;;;10.22;85.59375;102040.2;;;;-71
2023/04/07 16:23:11;;;;;;;;;;;;;;;10.26;85.34766;102046.8;;;;-72
2023/04/07 16:24:45;;;;;;;15.5;7.5;;;;;;;;;;;;;-71
2023/04/07 16:28:11;;;;;;;;;;;;;;;10.27;85.27344;102047.4;;;;-73
2023/04/07 16:33:11;;;;;;;;;;;;;;;10.28;85.1084;102054.3;;;;-71
2023/04/07 16:38:11;;;;;;;;;;;;;;;10.29;84.95313;102059.8;;;;-71
2023/04/07 16:43:11;;;;;;;;;;;;;;;10.28;84.89844;102061.6;;;;-71
2023/04/07 16:48:11;;;;;;;;;;;;;;;10.28;84.75488;102062;;;;-73
2023/04/07 16:53:11;;;;;;;;;;;;;;;10.29;84.77832;102067;;;;-72
2023/04/07 16:54:46;;;;;;;14;7.7;;;;;;;;;;;;;-72
2023/04/07 16:58:11;;;;;;;;;;;;;;;10.3;84.62598;102075.6;;;;-72
2023/04/07 17:03:12;;;;;;;;;;;;;;;10.3;84.60547;102084.9;;;;-70
2023/04/07 17:08:11;;;;;;;;;;;;;;;10.29;84.59082;102086.4;;;;-70
2023/04/07 17:13:11;;;;;;;;;;;;;;;10.28;84.50098;102094.4;;;;-71
2023/04/07 17:18:11;;;;;;;;;;;;;;;10.24;84.45898;102099.7;;;;-70
2023/04/07 17:23:12;;;;;;;;;;;;;;;10.2;84.9707;102103.5;;;;-70
2023/04/07 17:24:48;;;;;;;14.6;7.8;;;;;;;;;;;;;-71
2023/04/07 17:28:11;;;;;;;;;;;;;;;10.17;84.87695;102114.8;;;;-72
2023/04/07 17:33:11;;;;;;;;;;;;;;;10.15;84.7627;102123.3;;;;-71
2023/04/07 17:38:11;;;;;;;;;;;;;;;10.13;84.80371;102129.3;;;;-71
2023/04/07 17:43:11;;;;;;;;;;;;;;;10.1;84.87402;102137.5;;;;-72
2023/04/07 17:48:13;;;;;;;;;;;;;;;10.06;84.97754;102140;;;;-71
2023/04/07 17:53:11;;;;;;;;;;;;;;;10;85.12109;102147.3;;;;-71
2023/04/07 17:54:49;;;;;;;13.9;7.7;;;;;;;;;;;;;-70
2023/04/07 17:58:12;;;;;;;;;;;;;;;9.95;85.27637;102150.1;;;;-72
2023/04/07 18:03:13;;;;;;;;;;;;;;;9.91;85.4541;102160.3;;;;-71
2023/04/07 18:08:11;;;;;;;;;;;;;;;9.85;85.66406;102164.6;;;;-72
2023/04/07 18:13:12;;;;;;;;;;;;;;;9.8;85.57617;102167.7;;;;-72
2023/04/07 18:18:11;;;;;;;;;;;;;;;9.76;85.73438;102176.3;;;;-73
2023/04/07 18:23:12;;;;;;;;;;;;;;;9.72;85.68359;102177.9;;;;-72
2023/04/07 18:24:54;;;;;;;16.3;8.3;;;;;;;;;;;;;-71
2023/04/07 18:28:11;;;;;;;;;;;;;;;9.69;85.59961;102189.9;;;;-70
2023/04/07 18:33:13;;;;;;;;;;;;;;;9.65;85.41602;102196.7;;;;-72
2023/04/07 18:38:12;;;;;;;;;;;;;;;9.61;85.29688;102205;;;;-71
2023/04/07 18:43:11;;;;;;;;;;;;;;;9.58;85.03809;102211.7;;;;-72
2023/04/07 18:48:11;;;;;;;;;;;;;;;9.53;84.64355;102220.3;;;;-72
2023/04/07 18:53:14;;;;;;;;;;;;;;;9.47;84.2998;102228.7;;;;-72
2023/04/07 18:54:52;;;;;;;15.1;7.8;;;;;;;;;;;;;-73
2023/04/07 18:58:12;;;;;;;;;;;;;;;9.42;84.18066;102229.4;;;;-71
2023/04/07 19:03:11;;;;;;;;;;;;;;;9.38;84.23828;102238;;;;-73
2023/04/07 19:08:12;;;;;;;;;;;;;;;9.34;84.2627;102240.9;;;;-72
2023/04/07 19:13:14;;;;;;;;;;;;;;;9.3;84.35449;102247.3;;;;-72
2023/04/07 19:18:11;;;;;;;;;;;;;;;9.26;84.24902;102252.3;;;;-72
2023/04/07 19:23:11;;;;;;;;;;;;;;;9.21;84.34961;102240.2;;;;-73
2023/04/07 19:24:53;;;;;;;14.6;8;;;;;;;;;;;;;-71
2023/04/07 19:28:11;;;;;;;;;;;;;;;9.16;84.52637;102233;;;;-73
2023/04/07 19:33:11;;;;;;;;;;;;;;;9.11;84.69238;102247;;;;-73
2023/04/07 19:38:11;;;;;;;;;;;;;;;9.03;84.96484;102260.9;;;;-71
2023/04/07 19:43:13;;;;;;;;;;;;;;;8.97;85.08203;102262.9;;;;-72
2023/04/07 19:48:11;;;;;;;;;;;;;;;8.91;84.99609;102268.1;;;;-72
2023/04/07 19:53:14;;;;;;;;;;;;;;;8.86;84.95313;102273.6;;;;-71
2023/04/07 19:54:55;;;;;;;17.8;8;;;;;;;;;;;;;-72
2023/04/07 19:58:11;;;;;;;;;;;;;;;8.82;84.8252;102272.6;;;;-73
2023/04/07 20:03:11;;;;;;;;;;;;;;;8.79;84.65234;102268;;;;-73
2023/04/07 20:08:12;;;;;;;;;;;;;;;8.76;84.22949;102271.3;;;;-74
2023/04/07 20:13:12;;;;;;;;;;;;;;;8.7;84.49316;102276;;;;-74
2023/04/07 20:18:11;;;;;;;;;;;;;;;8.64;84.72363;102283.9;;;;-71
2023/04/07 20:23:11;;;;;;;;;;;;;;;8.6;84.46289;102288.3;;;;-72
2023/04/07 20:24:57;;;;;;;16.1;7.8;;;;;;;;;;;;;-73
2023/04/07 20:28:11;;;;;;;;;;;;;;;8.56;84.01465;102294.2;;;;-72
2023/04/07 20:33:11;;;;;;;;;;;;;;;8.52;83.99609;102300;;;;-71
2023/04/07 20:38:11;;;;;;;;;;;;;;;8.5;83.83887;102308.8;;;;-72
2023/04/07 20:43:16;;;;;;;;;;;;;;;8.46;84.18164;102311.5;;;;-74
2023/04/07 20:48:11;;;;;;;;;;;;;;;8.46;83.91797;102312.7;;;;-72
2023/04/07 20:53:12;;;;;;;;;;;;;;;8.42;84.03027;102310.9;;;;-73
2023/04/07 20:54:57;;;;;;;15.2;7.3;;;;;;;;;;;;;-73
2023/04/07 20:58:12;;;;;;;;;;;;;;;8.37;83.80176;102314;;;;-74
2023/04/07 21:03:11;;;;;;;;;;;;;;;8.3;83.98535;102315.3;;;;-73
2023/04/07 21:08:12;;;;;;;;;;;;;;;8.26;84.15625;102320.3;;;;-72
2023/04/07 21:13:13;;;;;;;;;;;;;;;8.22;84.08105;102323.7;;;;-72
2023/04/07 21:18:14;;;;;;;;;;;;;;;8.22;83.91504;102327.2;;;;-73
2023/04/07 21:23:11;;;;;;;;;;;;;;;8.2;84.00977;102331.3;;;;-73
2023/04/07 21:25:05;;;;;;;16.4;7.6;;;;;;;;;;;;;-73
2023/04/07 21:28:11;;;;;;;;;;;;;;;8.19;84.06348;102332.1;;;;-73
2023/04/07 21:33:12;;;;;;;;;;;;;;;8.17;84.08203;102335.4;;;;-71
2023/04/07 21:38:11;;;;;;;;;;;;;;;8.15;83.97949;102336;;;;-73
2023/04/07 21:43:11;;;;;;;;;;;;;;;8.14;84.10938;102344.4;;;;-74
2023/04/07 21:48:12;;;;;;;;;;;;;;;8.13;84.08594;102343.3;;;;-72
2023/04/07 21:53:11;;;;;;;;;;;;;;;8.14;84.14258;102347.7;;;;-72
2023/04/07 21:54:59;;;;;;;16.3;6.9;;;;;;;;;;;;;-72
2023/04/07 21:58:11;;;;;;;;;;;;;;;8.12;83.96094;102351.9;;;;-73
2023/04/07 22:03:11;;;;;;;;;;;;;;;8.11;84.19238;102350.5;;;;-74
2023/04/07 22:08:12;;;;;;;;;;;;;;;8.09;84.28613;102354.4;;;;-73
2023/04/07 22:13:12;;;;;;;;;;;;;;;8.05;84.26953;102361.2;;;;-72
2023/04/07 22:18:12;;;;;;;;;;;;;;;8.04;84.37598;102362.8;;;;-72
2023/04/07 22:23:14;;;;;;;;;;;;;;;8.03;84.2002;102364.5;;;;-73
2023/04/07 22:25:00;;;;;;;17.6;7.4;;;;;;;;;;;;;-73
2023/04/07 22:28:11;;;;;;;;;;;;;;;8.01;84.0957;102366.9;;;;-72
2023/04/07 22:33:11;;;;;;;;;;;;;;;8;84.38867;102367.1;;;;-73
2023/04/07 22:38:12;;;;;;;;;;;;;;;7.95;84.21582;102369;;;;-72
2023/04/07 22:43:12;;;;;;;;;;;;;;;7.92;84.18848;102373.9;;;;-72
2023/04/07 22:48:11;;;;;;;;;;;;;;;7.89;84.43359;102377.9;;;;-73
2023/04/07 22:53:15;;;;;;;;;;;;;;;7.86;84.30957;102378.1;;;;-72
2023/04/07 22:55:02;;;;;;;15.9;7.5;;;;;;;;;;;;;-72
2023/04/07 22:58:11;;;;;;;;;;;;;;;7.81;84.46387;102387;;;;-72
2023/04/07 23:03:13;;;;;;;;;;;;;;;7.75;84.38574;102389.6;;;;-73
2023/04/07 23:08:12;;;;;;;;;;;;;;;7.68;84.2832;102385.4;;;;-73
2023/04/07 23:13:13;;;;;;;;;;;;;;;7.62;84.31641;102383.1;;;;-72
2023/04/07 23:18:11;;;;;;;;;;;;;;;7.52;84.35059;102387.2;;;;-71
2023/04/07 23:23:11;;;;;;;;;;;;;;;7.43;84.54297;102388.5;;;;-73
2023/04/07 23:25:03;;;;;;;16.2;7;;;;;;;;;;;;;-73
2023/04/07 23:28:11;;;;;;;;;;;;;;;7.34;84.45898;102390.9;;;;-72
2023/04/07 23:33:13;;;;;;;;;;;;;;;7.28;84.88574;102391.4;;;;-72
2023/04/07 23:38:11;;;;;;;;;;;;;;;7.18;84.76953;102397.4;;;;-72
2023/04/07 23:43:11;;;;;;;;;;;;;;;7.12;84.6582;102401.3;;;;-73
2023/04/07 23:48:11;;;;;;;;;;;;;;;7.05;84.99512;102404.4;;;;-72
2023/04/07 23:53:13;;;;;;;;;;;;;;;6.98;84.88184;102407.3;;;;-72
2023/04/07 23:55:03;;;;;;;14.7;6.7;;;;;;;;;;;;;-73
2023/04/07 23:58:11;;;;;;;;;;;;;;;6.91;84.8584;102412.8;;;;-72
